Time;durP1;ratioP1;P1;durP2;ratioP2;P2;SDS_P1;SDS_P2;PMS_P1;PMS_P2;Temp;Humidity;BMP_temperature;BMP_pressure;BME280_temperature;BME280_humidity;BME280_pressure;Samples;Min_cycle;Max_cycle;Signal;HPM_P1;HPM_P2
2023/09/29 00:00:17;;;;;;;8.52;4.50;;;20.60;68.10;;;;;;5075973;28;20388;-71
2023/09/29 00:02:44;;;;;;;8.43;3.47;;;20.60;68.40;;;;;;5075941;28;20020;-72
2023/09/29 00:05:10;;;;;;;10.50;4.63;;;20.60;68.40;;;;;;5075692;28;20028;-72
2023/09/29 00:07:37;;;;;;;8.18;3.97;;;20.60;68.70;;;;;;5075206;28;20108;-71
2023/09/29 00:10:10;;;;;;;11.77;4.53;;;20.60;68.90;;;;;;5075252;28;20036;-71
2023/09/29 00:12:37;;;;;;;9.52;4.43;;;20.60;69.10;;;;;;5075512;28;20012;-72
2023/09/29 00:15:06;;;;;;;11.05;4.60;;;20.60;69.20;;;;;;5075600;28;20029;-71
2023/09/29 00:17:32;;;;;;;6.38;3.95;;;20.60;69.00;;;;;;5075764;28;20032;-72
2023/09/29 00:20:00;;;;;;;13.95;4.70;;;20.50;69.00;;;;;;5075450;28;20039;-72
2023/09/29 00:22:26;;;;;;;9.23;4.10;;;20.50;69.10;;;;;;5075500;28;20027;-72
2023/09/29 00:24:53;;;;;;;12.38;5.13;;;20.50;69.00;;;;;;5075459;28;20158;-72
2023/09/29 00:27:18;;;;;;;10.30;4.10;;;20.50;69.10;;;;;;5075391;28;20028;-72
2023/09/29 00:29:44;;;;;;;15.52;4.20;;;20.50;69.30;;;;;;5075476;28;20031;-72
2023/09/29 00:32:10;;;;;;;7.25;4.00;;;20.50;69.40;;;;;;5075426;28;20025;-72
2023/09/29 00:34:36;;;;;;;12.13;4.25;;;20.50;69.20;;;;;;5075126;28;20389;-72
2023/09/29 00:37:03;;;;;;;17.52;4.35;;;20.40;69.20;;;;;;5075243;28;20028;-72
2023/09/29 00:39:30;;;;;;;12.68;4.38;;;20.50;69.40;;;;;;5075438;28;20029;-72
2023/09/29 00:41:56;;;;;;;12.27;3.97;;;20.50;69.70;;;;;;5075202;28;20025;-72
2023/09/29 00:44:22;;;;;;;11.52;4.13;;;20.40;69.60;;;;;;5075129;28;20877;-71
2023/09/29 00:46:48;;;;;;;10.18;4.72;;;20.50;69.40;;;;;;5075073;28;20095;-72
2023/09/29 00:49:14;;;;;;;15.38;4.75;;;20.40;69.20;;;;;;5074890;28;20063;-72
2023/09/29 00:51:40;;;;;;;9.77;3.95;;;20.40;69.60;;;;;;5075132;28;20036;-72
2023/09/29 00:54:08;;;;;;;9.85;4.35;;;20.40;70.10;;;;;;5075130;28;20029;-72
2023/09/29 00:56:39;;;;;;;10.05;4.82;;;20.40;70.20;;;;;;5074717;28;20556;-72
2023/09/29 00:59:09;;;;;;;12.68;3.95;;;20.40;69.90;;;;;;5072153;28;20070;-73
2023/09/29 01:01:35;;;;;;;9.25;4.38;;;20.40;69.90;;;;;;5071996;28;20064;-72
2023/09/29 01:04:01;;;;;;;11.95;4.50;;;20.30;70.40;;;;;;5072003;28;20051;-72
2023/09/29 01:06:29;;;;;;;10.27;4.18;;;20.30;70.90;;;;;;5073744;28;20028;-71
2023/09/29 01:08:57;;;;;;;8.45;4.07;;;20.20;70.60;;;;;;5074590;28;20103;-72
2023/09/29 01:11:23;;;;;;;8.23;4.93;;;20.20;70.50;;;;;;5074259;28;20064;-72
2023/09/29 01:13:48;;;;;;;8.98;4.95;;;20.10;70.70;;;;;;5074130;28;20031;-72
2023/09/29 01:16:14;;;;;;;17.33;5.05;;;20.10;71.00;;;;;;5074398;28;20025;-71
2023/09/29 01:18:41;;;;;;;8.25;4.63;;;20.10;71.20;;;;;;5074478;28;20033;-72
2023/09/29 01:21:06;;;;;;;6.65;4.53;;;20.00;71.50;;;;;;5074160;28;20069;-71
2023/09/29 01:23:34;;;;;;;10.45;4.93;;;20.00;71.40;;;;;;5074283;28;20426;-71
2023/09/29 01:26:02;;;;;;;8.20;4.43;;;20.00;71.90;;;;;;5074157;28;20365;-72
2023/09/29 01:28:28;;;;;;;11.75;5.30;;;20.00;72.10;;;;;;5073947;28;20029;-72
2023/09/29 01:30:54;;;;;;;10.65;4.72;;;20.00;71.60;;;;;;5073978;28;20476;-72
2023/09/29 01:33:23;;;;;;;9.70;4.40;;;20.00;71.90;;;;;;5074282;28;20036;-71
2023/09/29 01:35:50;;;;;;;12.65;4.80;;;20.00;72.10;;;;;;5055763;28;20028;-72
2023/09/29 01:38:16;;;;;;;14.20;6.35;;;19.90;72.00;;;;;;5073580;28;20032;-72
2023/09/29 01:40:45;;;;;;;8.15;5.18;;;19.90;72.50;;;;;;5073814;28;20112;-72
2023/09/29 01:43:11;;;;;;;12.93;5.25;;;19.80;72.40;;;;;;5073648;28;20361;-72
2023/09/29 01:45:38;;;;;;;11.35;5.47;;;19.80;72.70;;;;;;5073849;28;20035;-72
2023/09/29 01:48:05;;;;;;;10.05;4.93;;;19.80;72.60;;;;;;5073759;28;20082;-72
2023/09/29 01:50:33;;;;;;;9.00;4.90;;;19.80;72.70;;;;;;5073703;28;20052;-72
2023/09/29 01:52:59;;;;;;;12.65;5.50;;;19.70;72.60;;;;;;5073513;28;20025;-72
2023/09/29 01:55:24;;;;;;;9.05;5.22;;;19.70;72.80;;;;;;5073692;28;20078;-72
2023/09/29 01:57:55;;;;;;;12.27;5.32;;;19.60;72.70;;;;;;5073730;28;20086;-72
2023/09/29 02:00:23;;;;;;;10.55;5.13;;;19.60;73.00;;;;;;5073388;28;20115;-72
2023/09/29 02:02:50;;;;;;;12.75;5.03;;;19.50;73.10;;;;;;5073742;28;20028;-71
2023/09/29 02:05:16;;;;;;;10.25;5.20;;;19.40;73.40;;;;;;5073463;28;20052;-72
2023/09/29 02:07:43;;;;;;;9.60;5.25;;;19.40;73.90;;;;;;5073544;28;20024;-71
2023/09/29 02:10:09;;;;;;;11.40;4.90;;;19.30;74.00;;;;;;5073429;28;20071;-72
2023/09/29 02:12:46;;;;;;;12.38;4.80;;;19.30;73.70;;;;;;5073241;28;20032;-72
2023/09/29 02:15:16;;;;;;;8.93;5.03;;;19.30;74.10;;;;;;5073239;28;20024;-72
2023/09/29 02:17:42;;;;;;;11.15;4.82;;;19.20;74.30;;;;;;5072589;28;20078;-72
2023/09/29 02:20:18;;;;;;;12.43;5.53;;;19.20;74.50;;;;;;5073429;28;20039;-72
2023/09/29 02:22:45;;;;;;;7.15;4.13;;;19.20;74.50;;;;;;5054942;28;20078;-72
2023/09/29 02:25:12;;;;;;;10.32;4.80;;;19.10;74.20;;;;;;5055052;28;20078;-72
2023/09/29 02:27:38;;;;;;;11.30;4.90;;;19.00;74.40;;;;;;5073074;28;20052;-72
2023/09/29 02:30:04;;;;;;;7.97;4.28;;;19.00;74.70;;;;;;5073044;28;20068;-72
2023/09/29 02:32:30;;;;;;;14.95;4.80;;;19.00;75.30;;;;;;5055062;28;20027;-71
2023/09/29 02:34:55;;;;;;;11.70;4.35;;;19.00;75.40;;;;;;5073257;28;20096;-72
2023/09/29 02:37:21;;;;;;;10.07;4.85;;;19.00;75.40;;;;;;5072942;28;20029;-72
2023/09/29 02:39:47;;;;;;;16.80;5.60;;;18.90;75.50;;;;;;5072755;28;20028;-72
2023/09/29 02:42:13;;;;;;;11.25;5.00;;;18.90;75.60;;;;;;5073180;28;20028;-72
2023/09/29 02:44:39;;;;;;;16.63;5.82;;;18.90;75.80;;;;;;5072905;28;20173;-72
2023/09/29 02:47:05;;;;;;;10.48;4.70;;;18.90;75.80;;;;;;5073015;28;20043;-71
2023/09/29 02:49:33;;;;;;;6.75;4.55;;;18.90;75.90;;;;;;5072752;28;20008;-72
2023/09/29 02:52:04;;;;;;;15.38;4.70;;;18.90;76.50;;;;;;5054564;28;20043;-72
2023/09/29 02:54:30;;;;;;;10.15;4.53;;;18.90;75.80;;;;;;5072848;28;20556;-72
2023/09/29 02:56:56;;;;;;;9.10;4.75;;;18.80;76.20;;;;;;5072738;28;20021;-71
2023/09/29 02:59:24;;;;;;;13.55;4.53;;;18.90;76.40;;;;;;5072589;28;20024;-71
2023/09/29 03:01:50;;;;;;;11.07;4.35;;;18.90;76.30;;;;;;5072542;28;20111;-72
2023/09/29 03:04:16;;;;;;;11.98;4.07;;;18.90;76.30;;;;;;5072606;28;20086;-72
2023/09/29 03:06:41;;;;;;;9.05;4.18;;;18.90;76.30;;;;;;5072735;28;20028;-72
2023/09/29 03:09:10;;;;;;;10.05;4.72;;;18.90;75.90;;;;;;5072862;28;20063;-71
2023/09/29 03:11:39;;;;;;;10.15;4.78;;;19.00;75.90;;;;;;5072618;28;20040;-71
2023/09/29 03:14:06;;;;;;;8.88;4.57;;;19.00;75.70;;;;;;5072684;28;20016;-72
2023/09/29 03:16:34;;;;;;;7.50;4.25;;;19.00;75.50;;;;;;5072819;28;20048;-72
2023/09/29 03:19:00;;;;;;;9.30;4.60;;;19.10;75.60;;;;;;5072646;28;20035;-71
2023/09/29 03:21:25;;;;;;;8.52;4.53;;;19.20;75.40;;;;;;5072378;28;20020;-72
2023/09/29 03:23:51;;;;;;;9.55;3.90;;;19.20;74.90;;;;;;5072275;28;20033;-72
2023/09/29 03:26:23;;;;;;;13.20;3.90;;;19.20;74.70;;;;;;5072405;28;20100;-72
2023/09/29 03:28:52;;;;;;;15.93;6.07;;;19.30;74.70;;;;;;5066521;28;20083;-71
2023/09/29 03:31:22;;;;;;;10.55;4.55;;;19.30;74.50;;;;;;5076056;28;20047;-71
2023/09/29 03:33:48;;;;;;;9.07;4.53;;;19.30;74.20;;;;;;5076123;28;20029;-71
2023/09/29 03:36:14;;;;;;;5.13;4.07;;;19.40;74.30;;;;;;5076412;28;20380;-72
2023/09/29 03:38:41;;;;;;;12.32;4.50;;;19.40;74.10;;;;;;5076542;28;20032;-71
2023/09/29 03:41:09;;;;;;;8.55;4.45;;;19.40;74.10;;;;;;5076193;28;20023;-72
2023/09/29 03:43:34;;;;;;;6.82;4.05;;;19.40;74.30;;;;;;5076173;28;20016;-71
2023/09/29 03:46:00;;;;;;;8.70;5.07;;;19.40;74.30;;;;;;5075875;28;20020;-71
2023/09/29 03:48:26;;;;;;;12.45;4.53;;;19.40;74.10;;;;;;5075522;28;20068;-71
2023/09/29 03:50:53;;;;;;;7.82;4.50;;;19.40;73.90;;;;;;5075668;28;20040;-71
2023/09/29 03:53:19;;;;;;;9.15;4.05;;;19.40;74.00;;;;;;5075434;28;20491;-71
2023/09/29 03:55:45;;;;;;;9.10;4.90;;;19.50;74.20;;;;;;5075965;28;20047;-71
2023/09/29 03:58:11;;;;;;;8.32;3.85;;;19.50;74.10;;;;;;5075864;28;20036;-71
2023/09/29 04:00:36;;;;;;;7.45;4.30;;;19.50;74.00;;;;;;5075678;28;20024;-72
2023/09/29 04:03:02;;;;;;;9.95;4.78;;;19.40;73.80;;;;;;5075379;28;20035;-72
2023/09/29 04:05:28;;;;;;;13.73;4.55;;;19.40;74.30;;;;;;5075564;28;20375;-71
2023/09/29 04:07:54;;;;;;;11.18;4.78;;;19.40;74.30;;;;;;5075909;28;20081;-72
2023/09/29 04:10:20;;;;;;;11.73;4.70;;;19.30;73.80;;;;;;5075374;28;20031;-71
2023/09/29 04:12:47;;;;;;;9.50;4.10;;;19.20;73.80;;;;;;5075404;28;20025;-72
2023/09/29 04:15:13;;;;;;;14.32;5.53;;;19.10;74.10;;;;;;5075323;28;20150;-71
2023/09/29 04:17:39;;;;;;;6.70;4.10;;;19.10;74.30;;;;;;5075235;28;20488;-72
2023/09/29 04:20:06;;;;;;;11.77;4.40;;;19.00;74.50;;;;;;5075306;28;20055;-71
2023/09/29 04:22:33;;;;;;;7.07;4.47;;;18.90;75.00;;;;;;5075465;28;20157;-72
2023/09/29 04:24:59;;;;;;;11.98;4.53;;;18.90;75.10;;;;;;5075444;28;20066;-72
2023/09/29 04:27:25;;;;;;;13.25;5.07;;;18.80;75.40;;;;;;5075459;28;20486;-72
2023/09/29 04:29:54;;;;;;;15.23;4.88;;;18.70;75.50;;;;;;5075358;28;20101;-71
2023/09/29 04:32:19;;;;;;;13.95;4.70;;;18.70;75.80;;;;;;5075128;28;20146;-72
2023/09/29 04:34:45;;;;;;;8.38;4.38;;;18.70;75.90;;;;;;5074889;28;20095;-72
2023/09/29 04:37:11;;;;;;;10.65;4.53;;;18.60;75.90;;;;;;5075168;28;20416;-72
2023/09/29 04:39:37;;;;;;;11.63;5.03;;;18.60;76.30;;;;;;5075264;28;20031;-72
2023/09/29 04:42:04;;;;;;;12.13;4.75;;;18.60;76.40;;;;;;5074292;28;20027;-72
2023/09/29 04:44:30;;;;;;;9.35;4.32;;;18.50;76.30;;;;;;5066305;28;20413;-72
2023/09/29 04:46:56;;;;;;;10.20;5.00;;;18.60;76.20;;;;;;5054913;28;20017;-72
2023/09/29 04:49:22;;;;;;;13.65;4.63;;;18.60;76.20;;;;;;5054756;28;20029;-71
2023/09/29 04:51:47;;;;;;;10.00;4.78;;;18.60;76.20;;;;;;5054726;28;20104;-72
2023/09/29 04:54:13;;;;;;;10.52;4.88;;;18.70;76.00;;;;;;5054806;28;20373;-72
2023/09/29 04:56:39;;;;;;;12.90;4.05;;;18.70;75.80;;;;;;5055020;28;20021;-73
2023/09/29 04:59:05;;;;;;;11.38;4.95;;;18.70;75.70;;;;;;5054929;28;20037;-71
2023/09/29 05:01:31;;;;;;;12.60;4.90;;;18.80;75.90;;;;;;5057145;28;20100;-72
2023/09/29 05:03:57;;;;;;;14.40;4.57;;;18.80;75.80;;;;;;5055006;28;20115;-72
2023/09/29 05:06:24;;;;;;;16.63;5.35;;;18.80;75.70;;;;;;5054773;28;20028;-72
2023/09/29 05:08:49;;;;;;;9.88;5.15;;;18.80;75.40;;;;;;5054677;28;20496;-72
2023/09/29 05:11:23;;;;;;;12.98;5.32;;;18.80;75.90;;;;;;5054329;28;20040;-72
2023/09/29 05:13:49;;;;;;;6.78;4.75;;;18.70;76.20;;;;;;5054505;28;20029;-72
2023/09/29 05:16:18;;;;;;;9.23;4.85;;;18.70;76.30;;;;;;5054585;28;20024;-72
2023/09/29 05:18:45;;;;;;;15.30;5.03;;;18.60;76.50;;;;;;5036411;28;20064;-72
2023/09/29 05:21:14;;;;;;;17.70;5.07;;;18.60;76.30;;;;;;5054686;28;20025;-73
2023/09/29 05:23:41;;;;;;;16.60;5.38;;;18.60;76.40;;;;;;5073310;28;20020;-72
2023/09/29 05:26:07;;;;;;;11.23;5.80;;;18.50;76.40;;;;;;5074282;28;20589;-71
2023/09/29 05:28:37;;;;;;;10.48;5.25;;;18.40;76.90;;;;;;5074533;28;20056;-72
2023/09/29 05:31:04;;;;;;;9.73;4.63;;;18.40;77.40;;;;;;5074010;28;20045;-72
2023/09/29 05:33:30;;;;;;;8.88;4.78;;;18.40;77.60;;;;;;5074187;28;20017;-71
2023/09/29 05:35:57;;;;;;;8.98;4.47;;;18.40;77.50;;;;;;5073927;28;20135;-72
2023/09/29 05:38:23;;;;;;;12.20;5.20;;;18.40;77.50;;;;;;5073970;28;20043;-72
2023/09/29 05:40:50;;;;;;;14.98;4.50;;;18.30;77.60;;;;;;5073531;28;20016;-71
2023/09/29 05:43:16;;;;;;;7.72;4.70;;;18.30;77.90;;;;;;5073964;28;20025;-72
2023/09/29 05:45:44;;;;;;;9.88;4.68;;;18.40;77.90;;;;;;5073708;28;20049;-72
2023/09/29 05:48:10;;;;;;;11.85;4.50;;;18.40;77.40;;;;;;5073998;28;20031;-72
2023/09/29 05:50:35;;;;;;;12.65;4.85;;;18.40;77.40;;;;;;5073870;28;20032;-72
2023/09/29 05:53:02;;;;;;;11.23;4.20;;;18.50;77.40;;;;;;5073545;28;20099;-71
2023/09/29 05:55:28;;;;;;;8.77;4.40;;;18.60;77.40;;;;;;5072817;28;20099;-72
2023/09/29 05:57:54;;;;;;;14.75;4.63;;;18.60;77.30;;;;;;5073486;28;20529;-72
2023/09/29 06:00:19;;;;;;;7.45;4.35;;;18.70;77.40;;;;;;5071941;28;20028;-71
2023/09/29 06:02:46;;;;;;;13.45;5.15;;;18.70;77.50;;;;;;5072913;28;20032;-72
2023/09/29 06:05:12;;;;;;;19.15;4.60;;;18.70;77.30;;;;;;5072913;28;20025;-72
2023/09/29 06:07:38;;;;;;;10.52;5.00;;;18.80;77.30;;;;;;5073066;28;20023;-72
2023/09/29 06:10:06;;;;;;;10.23;4.03;;;18.80;77.40;;;;;;5073070;28;20032;-72
2023/09/29 06:12:32;;;;;;;7.78;4.53;;;18.80;77.60;;;;;;5072789;28;20496;-72
2023/09/29 06:14:58;;;;;;;14.80;4.53;;;18.90;77.60;;;;;;5072671;28;20368;-72
2023/09/29 06:17:24;;;;;;;12.88;4.95;;;18.90;77.30;;;;;;5072335;28;20185;-72
2023/09/29 06:19:50;;;;;;;17.23;5.53;;;18.90;77.50;;;;;;5068859;28;20021;-72
2023/09/29 06:22:17;;;;;;;18.42;4.93;;;19.00;78.00;;;;;;5052674;28;20025;-72
2023/09/29 06:24:44;;;;;;;17.17;5.47;;;19.00;78.40;;;;;;5052745;28;20033;-72
2023/09/29 06:27:10;;;;;;;12.52;5.20;;;19.00;78.90;;;;;;5052176;28;20652;-72
2023/09/29 06:29:36;;;;;;;14.23;5.03;;;19.00;78.80;;;;;;5051004;28;20103;-72
2023/09/29 06:32:02;;;;;;;7.82;4.70;;;19.00;78.90;;;;;;5052841;28;20456;-71
2023/09/29 06:34:28;;;;;;;12.00;4.57;;;19.10;79.00;;;;;;5052935;28;20025;-72
2023/09/29 06:36:53;;;;;;;10.45;4.30;;;19.10;78.50;;;;;;5052494;28;20024;-70
2023/09/29 06:39:19;;;;;;;17.33;5.30;;;19.20;78.40;;;;;;5052115;28;20036;-71
2023/09/29 06:41:45;;;;;;;12.18;4.88;;;19.20;78.60;;;;;;5051986;28;20021;-70
2023/09/29 06:44:11;;;;;;;14.60;4.72;;;19.30;78.70;;;;;;5051836;28;20045;-72
2023/09/29 06:46:36;;;;;;;13.65;4.97;;;19.30;78.90;;;;;;5052661;28;20025;-72
2023/09/29 06:49:02;;;;;;;16.23;5.38;;;19.30;78.90;;;;;;5052830;28;20025;-72
2023/09/29 06:51:28;;;;;;;11.23;5.07;;;19.30;78.80;;;;;;5052806;28;20033;-72
2023/09/29 06:53:54;;;;;;;11.88;4.60;;;19.30;78.80;;;;;;5052629;28;20377;-72
2023/09/29 06:56:19;;;;;;;16.98;4.20;;;19.30;78.30;;;;;;5052756;28;20021;-72
2023/09/29 06:58:46;;;;;;;13.50;4.90;;;19.40;77.90;;;;;;5052744;28;20060;-72
2023/09/29 07:01:12;;;;;;;7.70;4.57;;;19.40;77.60;;;;;;5052423;28;20108;-72
2023/09/29 07:03:38;;;;;;;15.50;5.22;;;19.50;77.40;;;;;;5034205;28;20117;-72
2023/09/29 07:06:04;;;;;;;10.45;4.15;;;19.50;77.40;;;;;;5052578;28;20053;-73
2023/09/29 07:08:30;;;;;;;13.77;4.47;;;19.50;77.50;;;;;;5052418;28;20056;-72
2023/09/29 07:10:56;;;;;;;17.77;4.57;;;19.60;77.60;;;;;;5052729;28;20041;-72
2023/09/29 07:13:22;;;;;;;9.38;4.50;;;19.70;77.60;;;;;;5052898;28;20094;-72
2023/09/29 07:15:48;;;;;;;12.55;4.78;;;19.70;77.40;;;;;;5052524;28;20037;-72
2023/09/29 07:18:16;;;;;;;14.65;4.78;;;19.70;77.30;;;;;;5052381;28;20047;-72
2023/09/29 07:20:43;;;;;;;10.85;4.65;;;19.80;77.10;;;;;;5052309;28;20021;-73
2023/09/29 07:23:08;;;;;;;12.88;6.65;;;19.80;76.90;;;;;;5052520;28;20032;-71
2023/09/29 07:25:39;;;;;;;17.20;5.10;;;19.90;76.90;;;;;;5052564;28;20485;-71
2023/09/29 07:28:11;;;;;;;7.82;4.43;;;19.90;76.70;;;;;;5052480;28;20033;-72
2023/09/29 07:30:36;;;;;;;13.00;4.32;;;20.00;76.70;;;;;;5052427;28;20036;-71
2023/09/29 07:33:02;;;;;;;9.63;4.75;;;20.00;76.50;;;;;;5052373;28;20025;-72
2023/09/29 07:35:28;;;;;;;8.88;4.30;;;20.10;76.50;;;;;;5034319;28;20052;-72
2023/09/29 07:37:54;;;;;;;18.73;5.38;;;20.10;76.10;;;;;;5052298;28;20028;-72
2023/09/29 07:40:19;;;;;;;12.18;4.53;;;20.20;75.80;;;;;;5052126;28;20048;-71
2023/09/29 07:42:45;;;;;;;10.73;4.03;;;20.30;75.70;;;;;;5052233;28;20036;-72
2023/09/29 07:45:11;;;;;;;11.68;4.20;;;20.30;75.20;;;;;;5052182;28;20041;-72
2023/09/29 07:47:41;;;;;;;6.40;3.88;;;20.30;75.10;;;;;;5052174;28;20025;-72
2023/09/29 07:50:07;;;;;;;17.48;4.38;;;20.40;74.80;;;;;;5034318;28;20029;-71
2023/09/29 07:52:37;;;;;;;16.80;4.63;;;20.50;74.70;;;;;;5052208;28;20029;-71
2023/09/29 07:55:03;;;;;;;9.15;4.00;;;20.50;74.60;;;;;;5052226;28;20484;-72
2023/09/29 07:57:29;;;;;;;9.30;4.00;;;20.60;74.50;;;;;;5052337;28;20025;-72
2023/09/29 07:59:54;;;;;;;8.43;3.60;;;20.70;73.80;;;;;;5052259;28;20048;-72
2023/09/29 08:02:20;;;;;;;10.27;4.22;;;20.70;73.30;;;;;;5052226;28;20043;-72
2023/09/29 08:04:46;;;;;;;12.10;4.13;;;20.80;73.10;;;;;;5052157;28;20051;-72
2023/09/29 08:07:13;;;;;;;11.00;4.60;;;20.80;73.00;;;;;;5052042;28;20017;-71
2023/09/29 08:09:38;;;;;;;13.63;4.50;;;20.90;72.80;;;;;;5052249;28;20106;-71
2023/09/29 08:12:04;;;;;;;14.95;4.47;;;20.90;72.30;;;;;;5052252;28;20033;-71
2023/09/29 08:14:31;;;;;;;14.98;4.30;;;20.90;72.30;;;;;;5034183;28;20377;-71
2023/09/29 08:16:57;;;;;;;10.43;3.92;;;21.00;72.50;;;;;;5054608;28;20025;-72
2023/09/29 08:19:23;;;;;;;10.43;4.03;;;21.10;71.90;;;;;;5055665;28;20029;-71
2023/09/29 08:21:49;;;;;;;9.68;3.85;;;21.20;71.60;;;;;;5037527;28;20021;-72
2023/09/29 08:24:15;;;;;;;17.98;5.28;;;21.20;71.90;;;;;;5055605;28;20025;-71
2023/09/29 08:26:41;;;;;;;15.55;4.40;;;21.30;71.50;;;;;;5055325;28;20033;-72
2023/09/29 08:29:10;;;;;;;14.20;4.20;;;21.40;70.70;;;;;;5055477;28;20032;-71
2023/09/29 08:31:35;;;;;;;16.15;4.38;;;21.50;70.70;;;;;;5055237;28;20067;-71
2023/09/29 08:34:04;;;;;;;13.07;4.20;;;21.60;70.40;;;;;;5055414;28;20057;-72
2023/09/29 08:36:30;;;;;;;10.82;3.78;;;21.70;69.40;;;;;;5055063;28;20481;-72
2023/09/29 08:38:55;;;;;;;9.07;3.83;;;21.70;68.50;;;;;;5055138;28;20029;-72
2023/09/29 08:41:27;;;;;;;12.88;4.57;;;21.80;68.20;;;;;;5055350;28;20025;-72
2023/09/29 08:43:53;;;;;;;11.45;3.78;;;21.90;67.80;;;;;;5054621;28;20424;-72
2023/09/29 08:46:20;;;;;;;14.60;4.03;;;22.00;67.30;;;;;;5054941;28;20028;-72
2023/09/29 08:48:47;;;;;;;14.38;3.85;;;22.10;66.30;;;;;;5055280;28;20420;-72
2023/09/29 08:51:15;;;;;;;13.13;3.90;;;22.20;66.40;;;;;;5055149;28;20033;-72
2023/09/29 08:53:43;;;;;;;8.55;3.45;;;22.30;66.20;;;;;;5054346;28;20021;-72
2023/09/29 08:56:14;;;;;;;11.93;3.70;;;22.40;66.80;;;;;;5054897;28;20029;-71
2023/09/29 08:58:40;;;;;;;11.90;3.78;;;22.40;66.60;;;;;;5053904;28;20029;-72
2023/09/29 09:01:05;;;;;;;13.82;3.80;;;22.50;67.20;;;;;;5053390;28;20036;-71
2023/09/29 09:03:31;;;;;;;11.80;3.78;;;22.50;68.00;;;;;;5059972;28;20021;-71
2023/09/29 09:05:57;;;;;;;11.18;3.45;;;22.60;67.20;;;;;;5074289;28;20093;-72
2023/09/29 09:08:26;;;;;;;14.02;4.22;;;22.70;66.40;;;;;;5073986;28;20063;-71
2023/09/29 09:10:59;;;;;;;8.05;4.03;;;22.70;66.50;;;;;;5073889;28;20484;-72
2023/09/29 09:13:28;;;;;;;13.68;3.63;;;22.80;66.80;;;;;;5074101;28;20086;-71
2023/09/29 09:16:00;;;;;;;9.50;3.38;;;22.80;66.70;;;;;;5074261;28;20020;-71
2023/09/29 09:18:28;;;;;;;;;;;22.90;66.40;;;;;;5074589;28;20353;-71
2023/09/29 09:20:55;;;;;;;9.52;3.42;;;23.00;66.60;;;;;;5074211;28;19904;-72
2023/09/29 09:23:21;;;;;;;10.52;3.83;;;23.00;66.60;;;;;;5074068;28;20024;-71
2023/09/29 09:25:46;;;;;;;9.13;3.40;;;23.10;65.70;;;;;;5073848;28;20383;-71
2023/09/29 09:28:17;;;;;;;8.95;3.40;;;23.20;66.60;;;;;;5073115;28;20032;-72
2023/09/29 09:30:44;;;;;;;10.38;3.40;;;23.20;65.50;;;;;;5073838;28;20036;-71
2023/09/29 09:33:25;;;;;;;7.15;3.95;;;23.20;64.70;;;;;;5071298;28;20020;-71
2023/09/29 09:35:51;;;;;;;10.13;3.10;;;23.30;64.80;;;;;;5073617;28;20396;-72
2023/09/29 09:38:17;;;;;;;7.82;3.50;;;23.40;64.40;;;;;;5073840;28;20032;-72
2023/09/29 09:40:49;;;;;;;10.77;3.38;;;23.40;62.50;;;;;;5055752;28;20040;-72
2023/09/29 09:43:17;;;;;;;;;;;23.50;59.70;;;;;;5073771;28;20037;-71
2023/09/29 09:45:47;;;;;;;8.40;2.97;;;23.60;59.10;;;;;;5073387;28;19920;-71
2023/09/29 09:48:14;;;;;;;5.78;2.90;;;23.70;57.30;;;;;;5073510;28;20036;-71
2023/09/29 09:50:43;;;;;;;11.35;2.97;;;23.80;57.40;;;;;;5072894;28;20047;-71
2023/09/29 09:53:11;;;;;;;10.48;2.80;;;23.80;57.00;;;;;;5072257;28;20028;-71
2023/09/29 09:55:39;;;;;;;6.05;2.83;;;23.90;55.80;;;;;;5072449;28;20380;-72
2023/09/29 09:58:12;;;;;;;8.30;2.88;;;24.00;55.30;;;;;;5072652;28;20047;-72
2023/09/29 10:00:41;;;;;;;8.68;2.55;;;24.00;54.30;;;;;;5073045;28;20028;-72
2023/09/29 10:03:12;;;;;;;8.60;3.03;;;24.10;54.60;;;;;;5073058;28;20432;-72
2023/09/29 10:05:41;;;;;;;11.00;2.95;;;24.10;54.30;;;;;;5073469;28;20029;-71
2023/09/29 10:08:09;;;;;;;14.02;3.00;;;24.20;55.00;;;;;;5073362;28;20028;-71
2023/09/29 10:10:38;;;;;;;8.38;3.22;;;24.30;53.80;;;;;;5073451;28;20036;-70
2023/09/29 10:13:06;;;;;;;4.95;2.65;;;24.30;52.80;;;;;;5073432;28;20046;-71
2023/09/29 10:15:32;;;;;;;11.45;3.03;;;24.30;54.20;;;;;;5073542;28;20027;-71
2023/09/29 10:17:59;;;;;;;9.32;3.05;;;24.40;54.00;;;;;;5073443;28;20020;-71
2023/09/29 10:20:26;;;;;;;14.65;3.25;;;24.40;53.00;;;;;;5073509;28;20024;-71
2023/09/29 10:23:13;;;;;;;7.38;2.95;;;24.50;52.60;;;;;;5073269;28;20020;-71
2023/09/29 10:25:40;;;;;;;10.30;3.05;;;24.50;50.80;;;;;;5073336;28;20042;-70
2023/09/29 10:28:07;;;;;;;8.70;3.15;;;24.60;51.70;;;;;;5073011;28;20029;-71
2023/09/29 10:30:34;;;;;;;10.13;2.65;;;24.60;52.60;;;;;;5072977;28;20078;-70
2023/09/29 10:33:05;;;;;;;16.75;3.25;;;24.70;52.00;;;;;;5073224;28;20066;-71
2023/09/29 10:35:33;;;;;;;8.95;2.83;;;24.70;51.00;;;;;;5073118;28;20481;-70
2023/09/29 10:38:06;;;;;;;9.70;2.85;;;24.70;52.00;;;;;;5072726;28;20563;-70
2023/09/29 10:40:32;;;;;;;6.03;2.88;;;24.80;50.60;;;;;;5072799;28;20036;-72
2023/09/29 10:43:02;;;;;;;8.65;3.10;;;24.80;51.30;;;;;;5072846;28;20522;-72
2023/09/29 10:45:36;;;;;;;13.13;2.85;;;24.90;52.30;;;;;;5072844;28;20431;-72
2023/09/29 10:48:04;;;;;;;9.38;2.80;;;24.90;52.50;;;;;;5055117;28;20024;-72
2023/09/29 10:50:30;;;;;;;8.82;2.78;;;25.00;51.20;;;;;;5073046;28;20033;-72
2023/09/29 10:52:56;;;;;;;11.63;3.00;;;25.00;51.60;;;;;;5073209;28;20035;-71
2023/09/29 10:55:22;;;;;;;6.43;2.97;;;25.10;52.50;;;;;;5072831;28;20558;-72
2023/09/29 10:57:49;;;;;;;9.18;3.47;;;25.10;51.90;;;;;;5072436;28;20020;-72
2023/09/29 11:00:15;;;;;;;10.95;3.10;;;25.10;52.10;;;;;;5072553;28;20063;-72
2023/09/29 11:02:42;;;;;;;10.82;3.20;;;25.20;51.90;;;;;;5072665;28;20048;-72
2023/09/29 11:05:12;;;;;;;5.75;2.85;;;25.20;52.50;;;;;;5072851;28;20017;-71
2023/09/29 11:07:49;;;;;;;10.73;3.28;;;25.20;53.10;;;;;;5072403;28;20032;-71
2023/09/29 11:10:19;;;;;;;6.65;2.75;;;25.30;53.40;;;;;;5072428;28;20028;-72
2023/09/29 11:12:48;;;;;;;8.75;3.50;;;25.30;50.90;;;;;;5071396;28;20059;-73
2023/09/29 11:15:15;;;;;;;10.68;3.33;;;25.30;51.90;;;;;;5069822;28;20028;-73
2023/09/29 11:17:49;;;;;;;9.43;3.05;;;25.40;50.00;;;;;;5070081;28;20031;-72
2023/09/29 11:20:26;;;;;;;10.20;2.65;;;25.40;50.90;;;;;;5072872;28;20017;-73
2023/09/29 11:23:06;;;;;;;7.28;2.80;;;25.40;51.40;;;;;;5072726;28;20491;-72
2023/09/29 11:25:43;;;;;;;5.82;2.88;;;25.50;50.00;;;;;;5072165;28;20048;-72
2023/09/29 11:28:12;;;;;;;8.27;2.72;;;25.50;51.40;;;;;;5072291;28;20592;-72
2023/09/29 11:30:39;;;;;;;9.13;3.03;;;25.50;51.40;;;;;;5072378;28;20041;-71
2023/09/29 11:33:06;;;;;;;8.75;2.80;;;25.50;49.40;;;;;;5072446;28;20028;-72
2023/09/29 11:35:32;;;;;;;9.13;3.08;;;25.60;50.30;;;;;;5072274;28;20036;-72
2023/09/29 11:37:58;;;;;;;11.60;3.00;;;25.60;50.70;;;;;;5070910;28;20032;-73
2023/09/29 11:40:24;;;;;;;12.95;2.90;;;25.60;50.20;;;;;;5069581;28;20032;-72
2023/09/29 11:42:49;;;;;;;8.38;3.00;;;25.60;50.30;;;;;;5069723;28;20024;-72
2023/09/29 11:45:15;;;;;;;8.18;3.20;;;25.70;50.90;;;;;;5070964;28;20059;-71
2023/09/29 11:47:44;;;;;;;9.35;3.13;;;25.70;50.80;;;;;;5071940;28;20031;-72
2023/09/29 11:50:11;;;;;;;4.47;2.78;;;25.70;51.20;;;;;;5073009;28;20035;-73
2023/09/29 11:52:41;;;;;;;15.93;3.40;;;25.70;51.80;;;;;;5075595;28;20032;-72
2023/09/29 11:55:11;;;;;;;15.18;3.28;;;25.80;52.00;;;;;;5075772;28;20025;-72
2023/09/29 11:57:40;;;;;;;7.50;3.20;;;25.80;51.20;;;;;;5075859;28;20024;-72
2023/09/29 12:00:08;;;;;;;5.63;3.00;;;25.90;50.20;;;;;;5075433;28;20219;-72
2023/09/29 12:02:34;;;;;;;10.85;2.97;;;25.90;49.70;;;;;;5075617;28;20043;-72
2023/09/29 12:05:00;;;;;;;9.75;2.83;;;26.00;50.80;;;;;;5075845;28;20013;-71
2023/09/29 12:07:27;;;;;;;5.45;2.72;;;26.00;50.50;;;;;;5075801;28;20028;-72
2023/09/29 12:09:52;;;;;;;8.80;3.08;;;26.00;50.00;;;;;;5075781;28;20419;-73
2023/09/29 12:12:18;;;;;;;12.35;2.88;;;26.00;50.60;;;;;;5075353;28;20040;-72
2023/09/29 12:14:44;;;;;;;12.52;4.13;;;26.10;50.50;;;;;;5074220;28;20276;-72
2023/09/29 12:17:09;;;;;;;10.35;3.33;;;26.10;51.10;;;;;;5075780;28;20028;-72
2023/09/29 12:19:35;;;;;;;12.85;3.30;;;26.10;51.10;;;;;;5075923;28;20025;-72
2023/09/29 12:22:01;;;;;;;11.68;3.15;;;26.20;51.30;;;;;;5075929;28;20021;-72
2023/09/29 12:24:27;;;;;;;9.52;2.85;;;26.20;49.20;;;;;;5075753;28;20484;-72
2023/09/29 12:26:52;;;;;;;6.07;2.90;;;26.20;49.40;;;;;;5075449;28;20056;-73
2023/09/29 12:29:18;;;;;;;7.40;3.13;;;26.20;49.50;;;;;;5074671;28;20114;-72
2023/09/29 12:31:44;;;;;;;11.40;3.33;;;26.20;50.00;;;;;;5057136;28;20032;-72
2023/09/29 12:34:09;;;;;;;6.80;3.40;;;26.20;49.60;;;;;;5075290;28;20025;-71
2023/09/29 12:36:35;;;;;;;10.52;2.85;;;26.20;50.60;;;;;;5074899;28;20024;-72
2023/09/29 12:39:03;;;;;;;10.35;2.83;;;26.30;49.90;;;;;;5075359;28;20468;-71